createdAt,value
2019-06-27T00:00:18.153Z,102544.94
2019-06-27T00:02:45.121Z,102551.97
2019-06-27T00:05:12.204Z,102548.66
2019-06-27T00:07:39.180Z,102548.92
2019-06-27T00:10:07.958Z,102554.98
2019-06-27T00:12:34.955Z,102547.66
2019-06-27T00:15:01.954Z,102548.83
2019-06-27T00:17:28.925Z,102557.20
2019-06-27T00:19:55.911Z,102557.61
2019-06-27T00:22:22.934Z,102545.89
2019-06-27T00:24:49.875Z,102555.02
2019-06-27T00:27:16.828Z,102556.68
2019-06-27T00:29:45.136Z,102561.06
2019-06-27T00:32:12.154Z,102560.16
2019-06-27T00:34:40.396Z,102556.10
2019-06-27T00:37:07.361Z,102561.28
2019-06-27T00:39:34.345Z,102562.97
2019-06-27T00:42:01.313Z,102564.62
2019-06-27T00:44:30.086Z,102554.77
2019-06-27T00:46:57.082Z,102560.98
2019-06-27T00:49:25.692Z,102561.30
2019-06-27T00:51:52.675Z,102559.42
2019-06-27T00:54:19.658Z,102560.28
2019-06-27T00:56:46.614Z,102554.03
2019-06-27T00:59:13.593Z,102556.50
2019-06-27T01:01:40.582Z,102559.95
2019-06-27T01:04:07.619Z,102559.47
2019-06-27T01:06:34.659Z,102554.04
2019-06-27T01:09:01.633Z,102554.00
2019-06-27T01:11:28.929Z,102547.27
2019-06-27T01:13:55.919Z,102555.72
2019-06-27T01:16:23.094Z,102553.45
2019-06-27T01:18:50.052Z,102562.67
2019-06-27T01:21:16.991Z,102567.02
2019-06-27T01:23:45.159Z,102562.79
2019-06-27T01:26:12.370Z,102562.23
2019-06-27T01:28:39.410Z,102566.02
2019-06-27T01:31:06.514Z,102569.97
2019-06-27T01:33:33.598Z,102569.49
2019-06-27T01:36:00.571Z,102564.09
2019-06-27T01:38:27.647Z,102561.39
2019-06-27T01:40:54.612Z,102556.43
2019-06-27T01:43:21.589Z,102555.02
2019-06-27T01:45:52.415Z,102562.00
2019-06-27T01:48:19.399Z,102561.10
2019-06-27T01:50:46.382Z,102568.09
2019-06-27T01:53:13.424Z,102570.66
2019-06-27T01:55:40.385Z,102576.31
2019-06-27T01:58:07.451Z,102578.87
2019-06-27T02:00:34.404Z,102590.23
2019-06-27T02:03:01.365Z,102578.14
2019-06-27T02:05:28.369Z,102572.83
2019-06-27T02:07:55.356Z,102577.11
2019-06-27T02:10:22.325Z,102582.37
2019-06-27T02:12:49.294Z,102585.41
2019-06-27T02:15:22.085Z,102579.67
2019-06-27T02:17:48.180Z,102580.91
2019-06-27T02:20:16.072Z,102580.82
2019-06-27T02:22:43.037Z,102578.35
2019-06-27T02:25:10.305Z,102579.72
2019-06-27T02:27:37.253Z,102584.27
2019-06-27T02:30:07.227Z,102584.31
2019-06-27T02:32:35.100Z,102575.20
2019-06-27T02:35:02.561Z,102582.73
2019-06-27T02:37:29.534Z,102590.27
2019-06-27T02:39:56.515Z,102592.12
2019-06-27T02:42:23.450Z,102598.84
2019-06-27T02:44:50.406Z,102598.42
2019-06-27T02:47:17.433Z,102596.33
2019-06-27T02:49:44.382Z,102596.88
2019-06-27T02:52:11.334Z,102598.30
2019-06-27T02:54:38.321Z,102596.33
2019-06-27T02:57:05.283Z,102598.68
2019-06-27T02:59:32.254Z,102602.54
2019-06-27T03:01:59.338Z,102595.81
2019-06-27T03:04:26.317Z,102594.14
2019-06-27T03:06:53.321Z,102595.98
2019-06-27T03:09:22.107Z,102589.17
2019-06-27T03:11:49.118Z,102590.97
2019-06-27T03:14:16.110Z,102597.14
2019-06-27T03:16:44.622Z,102596.28
2019-06-27T03:19:11.585Z,102597.23
2019-06-27T03:21:38.586Z,102597.70
2019-06-27T03:24:05.551Z,102599.41
2019-06-27T03:26:32.622Z,102599.97
2019-06-27T03:28:59.611Z,102592.00
2019-06-27T03:31:26.606Z,102601.77
2019-06-27T03:33:53.589Z,102607.30
2019-06-27T03:36:22.488Z,102596.63
2019-06-27T03:38:49.706Z,102598.81
2019-06-27T03:41:16.696Z,102605.80
2019-06-27T03:43:43.658Z,102612.02
2019-06-27T03:46:10.687Z,102611.97
2019-06-27T03:48:37.693Z,102611.45
2019-06-27T03:51:04.663Z,102611.07
2019-06-27T03:53:32.389Z,102611.54
2019-06-27T03:55:59.380Z,102608.02
2019-06-27T03:58:32.126Z,102605.87
2019-06-27T04:00:59.111Z,102615.05
2019-06-27T04:03:26.094Z,102616.94
2019-06-27T04:05:53.076Z,102614.37
2019-06-27T04:08:20.054Z,102617.16
2019-06-27T04:10:47.015Z,102611.06
2019-06-27T04:13:13.964Z,102615.30
2019-06-27T04:15:42.090Z,102609.16
2019-06-27T04:18:09.060Z,102604.93
2019-06-27T04:20:36.166Z,102611.88
2019-06-27T04:23:03.241Z,102606.95
2019-06-27T04:25:30.187Z,102616.25
2019-06-27T04:28:00.050Z,102611.33
2019-06-27T04:30:26.080Z,102619.00
2019-06-27T04:32:54.164Z,102613.72
2019-06-27T04:35:21.142Z,102615.95
2019-06-27T04:37:48.162Z,102616.72
2019-06-27T04:40:16.911Z,102615.95
2019-06-27T04:42:43.883Z,102620.49
2019-06-27T04:45:10.888Z,102622.37
2019-06-27T04:47:37.904Z,102623.86
2019-06-27T04:50:05.365Z,102620.04
2019-06-27T04:52:32.431Z,102621.02
2019-06-27T04:55:03.046Z,102627.75
2019-06-27T04:57:28.607Z,102624.90
2019-06-27T04:59:55.583Z,102616.92
2019-06-27T05:02:22.549Z,102629.31
2019-06-27T05:04:49.595Z,102628.41
2019-06-27T05:07:17.018Z,102624.55
2019-06-27T05:09:43.997Z,102628.81
2019-06-27T05:12:10.970Z,102635.86
2019-06-27T05:14:38.017Z,102631.27
2019-06-27T05:17:05.270Z,102631.39
2019-06-27T05:19:32.244Z,102635.46
2019-06-27T05:21:59.376Z,102638.31
2019-06-27T05:24:26.349Z,102637.18
2019-06-27T05:26:53.337Z,102640.55
2019-06-27T05:29:20.363Z,102646.97
2019-06-27T05:31:47.369Z,102647.51
2019-06-27T05:34:15.385Z,102652.05
2019-06-27T05:36:42.393Z,102649.93
2019-06-27T05:39:10.277Z,102659.20
2019-06-27T05:41:37.309Z,102659.86
2019-06-27T05:44:04.275Z,102665.66
2019-06-27T05:46:31.267Z,102662.20
2019-06-27T05:48:58.899Z,102663.43
2019-06-27T05:51:25.922Z,102658.38
2019-06-27T05:53:52.902Z,102655.44
2019-06-27T05:56:20.263Z,102662.13
2019-06-27T05:58:47.302Z,102658.85
2019-06-27T06:01:14.408Z,102664.49
2019-06-27T06:03:41.880Z,102672.16
2019-06-27T06:06:08.882Z,102677.17
2019-06-27T06:08:35.850Z,102674.55
2019-06-27T06:11:03.042Z,102670.30
2019-06-27T06:13:31.696Z,102672.54
2019-06-27T06:16:00.966Z,102667.10
2019-06-27T06:18:27.613Z,102672.97
2019-06-27T06:20:54.606Z,102671.13
2019-06-27T06:23:21.589Z,102658.91
2019-06-27T06:25:48.631Z,102661.53
2019-06-27T06:28:17.645Z,102661.72
2019-06-27T06:30:45.363Z,102671.00
2019-06-27T06:33:12.680Z,102664.84
2019-06-27T06:35:39.648Z,102669.84
2019-06-27T06:38:06.632Z,102672.94
2019-06-27T06:40:33.671Z,102671.03
2019-06-27T06:43:00.897Z,102676.96
2019-06-27T06:45:27.859Z,102689.66
2019-06-27T06:47:54.834Z,102684.22
2019-06-27T06:50:23.497Z,102690.24
2019-06-27T06:52:50.729Z,102689.34
2019-06-27T06:55:17.778Z,102690.20
2019-06-27T06:57:44.803Z,102685.59
2019-06-27T07:00:12.321Z,102689.97
2019-06-27T07:02:39.346Z,102690.05
2019-06-27T07:05:06.625Z,102691.41
2019-06-27T07:07:33.631Z,102698.54
2019-06-27T07:10:00.753Z,102694.08
2019-06-27T07:12:27.725Z,102696.31
2019-06-27T07:14:54.722Z,102706.17
2019-06-27T07:17:21.741Z,102697.83
2019-06-27T07:19:48.722Z,102694.43
2019-06-27T07:22:15.701Z,102702.25
2019-06-27T07:24:42.668Z,102703.11
2019-06-27T07:27:09.674Z,102704.37
2019-06-27T07:29:36.643Z,102701.94
2019-06-27T07:32:03.650Z,102697.34
2019-06-27T07:34:30.657Z,102701.41
2019-06-27T07:36:57.654Z,102702.30
2019-06-27T07:39:26.371Z,102700.73
2019-06-27T07:41:53.346Z,102705.27
2019-06-27T07:44:21.557Z,102708.14
2019-06-27T07:46:48.631Z,102707.95
2019-06-27T07:49:15.633Z,102704.97
2019-06-27T07:51:42.612Z,102703.54
2019-06-27T07:54:09.595Z,102711.53
2019-06-27T07:56:36.568Z,102710.77
2019-06-27T07:59:03.639Z,102712.67
2019-06-27T08:01:35.654Z,102706.11
2019-06-27T08:03:59.522Z,102703.53
2019-06-27T08:06:26.512Z,102706.80
2019-06-27T08:08:53.493Z,102703.12
2019-06-27T08:11:20.470Z,102704.94
2019-06-27T08:13:47.463Z,102701.25
2019-06-27T08:16:14.490Z,102699.64
2019-06-27T08:18:42.786Z,102695.64
2019-06-27T08:21:09.788Z,102702.12
2019-06-27T08:23:41.629Z,102699.52
2019-06-27T08:26:05.774Z,102691.42
2019-06-27T08:28:32.774Z,102697.56
2019-06-27T08:30:59.760Z,102694.48
2019-06-27T08:33:26.779Z,102695.97
2019-06-27T08:35:53.801Z,102694.30
2019-06-27T08:38:20.790Z,102692.14
2019-06-27T08:40:47.779Z,102695.07
2019-06-27T08:43:14.923Z,102697.28
2019-06-27T08:45:43.010Z,102697.87
2019-06-27T08:48:10.019Z,102693.11
2019-06-27T08:50:36.971Z,102686.84
2019-06-27T08:53:04.251Z,102690.14
2019-06-27T08:55:31.526Z,102691.58
2019-06-27T08:57:58.496Z,102688.86
2019-06-27T09:00:25.504Z,102685.91
2019-06-27T09:02:52.467Z,102694.36
2019-06-27T09:05:19.581Z,102689.44
2019-06-27T09:07:46.603Z,102688.53
2019-06-27T09:10:13.698Z,102687.87
2019-06-27T09:12:40.817Z,102685.87
2019-06-27T09:15:08.331Z,102686.77
2019-06-27T09:17:35.423Z,102677.08
2019-06-27T09:20:02.353Z,102683.95
2019-06-27T09:22:29.538Z,102679.17
2019-06-27T09:24:56.536Z,102684.60
2019-06-27T09:27:23.539Z,102681.97
2019-06-27T09:29:51.937Z,102679.75
2019-06-27T09:32:25.327Z,102684.06
2019-06-27T09:34:47.908Z,102678.72
2019-06-27T09:37:14.948Z,102678.91
2019-06-27T09:39:41.940Z,102681.50
2019-06-27T09:42:08.991Z,102678.42
2019-06-27T09:44:36.334Z,102675.31
2019-06-27T09:47:04.555Z,102674.67
2019-06-27T09:49:31.532Z,102672.16
2019-06-27T09:51:58.527Z,102667.34
2019-06-27T09:54:25.546Z,102665.51
2019-06-27T09:56:52.552Z,102670.97
2019-06-27T09:59:19.517Z,102666.95
2019-06-27T10:01:46.529Z,102663.52
2019-06-27T10:04:13.547Z,102662.67
2019-06-27T10:06:40.698Z,102660.14
2019-06-27T10:09:07.737Z,102653.59
2019-06-27T10:11:34.750Z,102657.85
2019-06-27T10:14:01.719Z,102656.11
2019-06-27T10:16:30.902Z,102649.84
2019-06-27T10:18:57.888Z,102657.51
2019-06-27T10:24:33.354Z,102654.89
2019-06-27T10:27:00.457Z,102658.45
2019-06-27T10:29:27.443Z,102652.64
2019-06-27T10:31:54.425Z,102654.45
2019-06-27T10:34:21.411Z,102652.22
2019-06-27T10:36:48.396Z,102653.16
2019-06-27T10:39:15.450Z,102643.84
2019-06-27T10:41:42.523Z,102654.15
2019-06-27T10:44:09.517Z,102646.98
2019-06-27T10:46:36.462Z,102654.14
2019-06-27T10:49:06.238Z,102644.30
2019-06-27T10:51:33.452Z,102641.64
2019-06-27T10:54:00.409Z,102639.84
2019-06-27T10:56:39.598Z,102638.00
2019-06-27T10:59:03.731Z,102637.13
2019-06-27T11:01:30.729Z,102632.20
2019-06-27T11:03:57.707Z,102634.40
2019-06-27T11:06:24.690Z,102625.42
2019-06-27T11:08:51.795Z,102634.78
2019-06-27T11:11:18.751Z,102630.65
2019-06-27T11:13:58.266Z,102628.19
2019-06-27T11:16:14.776Z,102621.30
2019-06-27T11:18:41.755Z,102630.03
2019-06-27T11:21:08.766Z,102622.85
2019-06-27T11:23:35.737Z,102621.50
2019-06-27T11:26:02.718Z,102627.47
2019-06-27T11:28:29.688Z,102622.17
2019-06-27T11:30:56.679Z,102619.86
2019-06-27T11:33:32.683Z,102616.09
2019-06-27T11:35:52.587Z,102617.53
2019-06-27T11:38:21.604Z,102612.93
2019-06-27T11:40:48.685Z,102608.65
2019-06-27T11:43:15.660Z,102606.09
2019-06-27T11:45:42.854Z,102611.74
2019-06-27T11:48:09.823Z,102608.17
2019-06-27T11:50:36.893Z,102607.97
2019-06-27T11:53:03.924Z,102604.97
2019-06-27T11:55:30.883Z,102597.99
2019-06-27T11:57:58.007Z,102603.17
2019-06-27T12:00:25.012Z,102603.17
2019-06-27T12:02:53.361Z,102599.95
2019-06-27T12:05:20.347Z,102596.20
2019-06-27T12:07:47.521Z,102588.10
2019-06-27T12:10:14.996Z,102575.08
2019-06-27T12:12:41.975Z,102582.87
2019-06-27T12:15:09.375Z,102580.21
2019-06-27T12:17:36.553Z,102579.73
2019-06-27T12:20:05.171Z,102579.05
2019-06-27T12:22:32.178Z,102573.73
2019-06-27T12:24:59.151Z,102578.48
2019-06-27T12:27:26.165Z,102572.86
2019-06-27T12:29:53.182Z,102573.70
2019-06-27T12:32:20.182Z,102572.98
2019-06-27T12:34:47.440Z,102574.81
2019-06-27T12:37:14.456Z,102577.81
2019-06-27T12:39:42.324Z,102567.55
2019-06-27T12:42:09.337Z,102568.23
2019-06-27T12:44:36.348Z,102556.42
2019-06-27T12:47:03.427Z,102554.64
2019-06-27T12:49:50.066Z,102549.87
2019-06-27T12:52:00.456Z,102551.97
2019-06-27T12:54:27.427Z,102546.80
2019-06-27T12:56:54.463Z,102546.80
2019-06-27T12:59:21.458Z,102540.58
2019-06-27T13:01:48.676Z,102544.17
2019-06-27T13:04:23.376Z,102536.92
2019-06-27T13:06:44.623Z,102545.42
2019-06-27T13:09:11.656Z,102538.08
2019-06-27T13:11:44.684Z,102534.06
2019-06-27T13:14:26.869Z,102533.37
2019-06-27T13:16:53.895Z,102534.53
2019-06-27T13:19:20.904Z,102531.76
2019-06-27T13:21:47.906Z,102529.45
2019-06-27T13:24:16.482Z,102532.12
2019-06-27T13:26:43.458Z,102521.52
2019-06-27T13:29:11.589Z,102518.09
2019-06-27T13:31:39.726Z,102516.88
2019-06-27T13:34:06.844Z,102519.70
2019-06-27T13:36:33.866Z,102516.31
2019-06-27T13:39:01.124Z,102512.48
2019-06-27T13:41:28.176Z,102505.54
2019-06-27T13:43:55.205Z,102513.02
2019-06-27T13:46:22.174Z,102513.39
2019-06-27T13:48:49.174Z,102499.27
2019-06-27T13:51:16.231Z,102500.48
2019-06-27T13:53:43.229Z,102497.82
2019-06-27T13:56:10.244Z,102495.57
2019-06-27T13:58:37.254Z,102498.23
2019-06-27T14:01:04.758Z,102494.16
2019-06-27T14:03:47.834Z,102487.86
2019-06-27T14:06:00.670Z,102490.05
2019-06-27T14:08:27.739Z,102482.78
2019-06-27T14:10:54.723Z,102480.86
2019-06-27T14:13:21.754Z,102489.12
2019-06-27T14:15:48.845Z,102483.59
2019-06-27T14:18:19.041Z,102477.30
2019-06-27T14:20:44.844Z,102481.20
2019-06-27T14:23:11.842Z,102473.48
2019-06-27T14:25:38.848Z,102476.36
2019-06-27T14:28:05.854Z,102477.73
2019-06-27T14:30:32.845Z,102482.38
2019-06-27T14:32:59.931Z,102473.33
2019-06-27T14:35:26.927Z,102471.59
2019-06-27T14:37:53.966Z,102474.69
2019-06-27T14:40:22.441Z,102469.88
2019-06-27T14:42:49.597Z,102466.63
2019-06-27T14:45:16.746Z,102467.12
2019-06-27T14:47:43.782Z,102465.67
2019-06-27T14:50:10.874Z,102467.58
2019-06-27T14:52:37.890Z,102464.23
2019-06-27T14:55:05.638Z,102464.23
2019-06-27T14:57:32.654Z,102461.84
2019-06-27T14:59:59.799Z,102461.84
2019-06-27T15:02:26.802Z,102460.39
2019-06-27T15:04:53.835Z,102463.08
2019-06-27T15:07:20.789Z,102464.81
2019-06-27T15:09:47.904Z,102459.63
2019-06-27T15:12:14.918Z,102464.17
2019-06-27T15:14:42.845Z,102460.14
2019-06-27T15:17:09.840Z,102460.14
2019-06-27T15:19:36.878Z,102451.11
2019-06-27T15:22:03.875Z,102442.73
2019-06-27T15:24:30.874Z,102452.48
2019-06-27T15:26:57.852Z,102458.55
2019-06-27T15:29:24.845Z,102447.89
2019-06-27T15:31:51.853Z,102447.89
2019-06-27T15:34:18.836Z,102449.66
2019-06-27T15:36:45.841Z,102441.13
2019-06-27T15:39:12.946Z,102437.58
2019-06-27T15:41:39.911Z,102433.97
2019-06-27T15:44:06.897Z,102447.94
2019-06-27T15:46:33.951Z,102441.10
2019-06-27T15:49:00.941Z,102429.78
2019-06-27T15:51:27.976Z,102433.37
2019-06-27T15:53:54.969Z,102436.22
2019-06-27T15:56:21.942Z,102436.22
2019-06-27T15:58:48.958Z,102434.02
2019-06-27T16:01:15.929Z,102430.80
2019-06-27T16:03:42.941Z,102433.52
2019-06-27T16:06:14.519Z,102433.80
2019-06-27T16:08:38.938Z,102425.47
2019-06-27T16:11:06.129Z,102436.52
2019-06-27T16:13:33.250Z,102431.09
2019-06-27T16:16:00.242Z,102422.61
2019-06-27T16:18:27.242Z,102426.83
2019-06-27T16:21:03.508Z,102426.69
2019-06-27T16:23:30.735Z,102418.59
2019-06-27T16:25:57.904Z,102421.44
2019-06-27T16:28:27.167Z,102407.48
2019-06-27T16:30:53.816Z,102407.48
2019-06-27T16:33:20.797Z,102404.31
2019-06-27T16:36:26.422Z,102413.92
2019-06-27T16:38:53.601Z,102411.14
2019-06-27T16:41:20.605Z,102411.14
2019-06-27T16:43:47.590Z,102406.53
2019-06-27T16:46:14.604Z,102402.18
2019-06-27T16:48:41.570Z,102402.18
2019-06-27T16:51:08.581Z,102403.05
2019-06-27T16:53:35.605Z,102403.05
2019-06-27T16:56:02.673Z,102401.22
2019-06-27T16:58:31.450Z,102404.60
2019-06-27T17:00:58.472Z,102409.94
2019-06-27T17:03:25.572Z,102412.48
2019-06-27T17:05:52.776Z,102407.19
2019-06-27T17:08:19.729Z,102411.09
2019-06-27T17:10:46.748Z,102411.87
2019-06-27T17:13:13.845Z,102420.38
2019-06-27T17:15:40.993Z,102419.03
2019-06-27T17:18:08.005Z,102418.76
2019-06-27T17:20:35.044Z,102417.17
2019-06-27T17:23:05.298Z,102418.61
2019-06-27T17:25:31.009Z,102413.41
2019-06-27T17:27:58.053Z,102417.67
2019-06-27T17:30:25.057Z,102420.52
2019-06-27T17:32:52.112Z,102420.37
2019-06-27T17:35:20.200Z,102420.04
2019-06-27T17:37:47.321Z,102422.25
2019-06-27T17:40:16.435Z,102421.24
2019-06-27T17:42:43.409Z,102417.52
2019-06-27T17:45:10.513Z,102426.33
2019-06-27T17:47:37.509Z,102418.25
2019-06-27T17:50:04.840Z,102417.44
2019-06-27T17:52:31.837Z,102419.55
2019-06-27T17:54:58.803Z,102424.62
2019-06-27T17:57:25.794Z,102419.16
2019-06-27T17:59:52.814Z,102422.88
2019-06-27T18:02:19.863Z,102417.27
2019-06-27T18:04:59.214Z,102417.95
2019-06-27T18:07:26.241Z,102424.95
2019-06-27T18:09:53.376Z,102425.27
2019-06-27T18:12:20.388Z,102424.08
2019-06-27T18:14:47.396Z,102414.80
2019-06-27T18:17:14.405Z,102427.95
2019-06-27T18:19:41.578Z,102433.06
2019-06-27T18:22:08.685Z,102431.80
2019-06-27T18:24:35.708Z,102424.28
2019-06-27T18:27:02.698Z,102432.91
2019-06-27T18:29:29.826Z,102434.70
2019-06-27T18:31:56.821Z,102437.89
2019-06-27T18:34:23.820Z,102438.38
2019-06-27T18:36:50.985Z,102434.84
2019-06-27T18:39:18.024Z,102435.30
2019-06-27T18:41:47.096Z,102434.39
2019-06-27T18:44:14.242Z,102433.95
2019-06-27T18:46:41.274Z,102437.09
2019-06-27T18:49:08.329Z,102444.24
2019-06-27T18:51:35.316Z,102444.69
2019-06-27T18:54:02.287Z,102438.41
2019-06-27T18:56:29.288Z,102433.00
2019-06-27T18:58:56.353Z,102436.52
2019-06-27T19:01:23.384Z,102432.94
2019-06-27T19:03:50.487Z,102429.79
2019-06-27T19:06:17.611Z,102428.86
2019-06-27T19:08:44.659Z,102428.38
2019-06-27T19:11:11.664Z,102431.94
2019-06-27T19:13:38.681Z,102427.00
2019-06-27T19:16:05.698Z,102431.00
2019-06-27T19:18:48.858Z,102434.52
2019-06-27T19:21:21.766Z,102437.63
2019-06-27T19:23:58.168Z,102424.61
2019-06-27T19:26:26.687Z,102431.27
2019-06-27T19:28:53.823Z,102438.79
2019-06-27T19:31:22.762Z,102436.06
2019-06-27T19:33:49.822Z,102440.94
2019-06-27T19:36:16.812Z,102439.10
2019-06-27T19:38:43.810Z,102434.12
2019-06-27T19:41:10.805Z,102436.27
2019-06-27T19:43:38.005Z,102441.11
2019-06-27T19:46:06.464Z,102444.16
2019-06-27T19:48:33.544Z,102450.78
2019-06-27T19:51:00.672Z,102444.88
2019-06-27T19:53:27.716Z,102449.27
2019-06-27T19:55:56.689Z,102451.89
2019-06-27T19:58:23.726Z,102454.94
2019-06-27T20:00:50.727Z,102458.43
2019-06-27T20:03:19.004Z,102457.02
2019-06-27T20:05:46.065Z,102467.16
2019-06-27T20:08:19.455Z,102457.75
2019-06-27T20:10:42.176Z,102462.12
2019-06-27T20:13:09.204Z,102463.80
2019-06-27T20:15:36.268Z,102462.85
2019-06-27T20:18:04.292Z,102462.73
2019-06-27T20:20:31.265Z,102461.31
2019-06-27T20:22:58.243Z,102461.63
2019-06-27T20:25:25.218Z,102460.68
2019-06-27T20:27:52.309Z,102465.89
2019-06-27T20:30:21.288Z,102470.73
2019-06-27T20:32:48.461Z,102475.56
2019-06-27T20:35:15.558Z,102478.59
2019-06-27T20:37:42.860Z,102476.72
2019-06-27T20:40:10.950Z,102484.64
2019-06-27T20:42:39.671Z,102479.65
2019-06-27T20:45:07.361Z,102480.42
2019-06-27T20:47:34.382Z,102488.30
2019-06-27T20:50:02.881Z,102481.08
2019-06-27T20:52:30.144Z,102486.77
2019-06-27T20:54:57.197Z,102484.00
2019-06-27T20:57:24.387Z,102490.13
2019-06-27T20:59:51.433Z,102494.41
2019-06-27T21:02:18.532Z,102488.77
2019-06-27T21:04:45.655Z,102497.09
2019-06-27T21:07:12.628Z,102491.64
2019-06-27T21:09:39.660Z,102493.78
2019-06-27T21:12:06.728Z,102494.59
2019-06-27T21:14:35.027Z,102494.97
2019-06-27T21:17:02.072Z,102497.58
2019-06-27T21:19:29.121Z,102487.67
2019-06-27T21:21:58.813Z,102499.62
2019-06-27T21:24:25.234Z,102496.44
2019-06-27T21:26:52.244Z,102495.45
2019-06-27T21:29:19.315Z,102494.05
2019-06-27T21:31:46.429Z,102495.27
2019-06-27T21:34:13.417Z,102496.94
2019-06-27T21:36:40.517Z,102501.30
2019-06-27T21:39:08.241Z,102490.92
2019-06-27T21:41:35.456Z,102501.00
2019-06-27T21:44:02.590Z,102499.58
2019-06-27T21:46:29.609Z,102492.89
2019-06-27T21:48:56.621Z,102493.69
2019-06-27T21:51:23.564Z,102493.19
2019-06-27T21:53:50.573Z,102490.83
2019-06-27T21:56:18.605Z,102488.53
2019-06-27T21:58:45.609Z,102483.07
2019-06-27T22:01:12.829Z,102488.75
2019-06-27T22:03:39.840Z,102489.59
2019-06-27T22:06:06.871Z,102493.04
2019-06-27T22:08:33.856Z,102495.16
2019-06-27T22:11:00.867Z,102483.09
2019-06-27T22:13:31.137Z,102485.17
2019-06-27T22:15:58.128Z,102488.63
2019-06-27T22:18:25.269Z,102488.95
2019-06-27T22:20:52.294Z,102485.78
2019-06-27T22:23:20.156Z,102491.06
2019-06-27T22:25:47.282Z,102486.03
2019-06-27T22:28:14.264Z,102487.64
2019-06-27T22:30:41.263Z,102486.23
2019-06-27T22:33:08.288Z,102487.06
2019-06-27T22:35:35.333Z,102486.95
2019-06-27T22:38:20.879Z,102484.22
2019-06-27T22:41:06.362Z,102482.73
2019-06-27T22:43:51.336Z,102482.23
2019-06-27T22:46:37.629Z,102485.67
2019-06-27T22:49:06.031Z,102489.58
2019-06-27T22:51:51.696Z,102484.27
2019-06-27T22:54:20.312Z,102486.73
2019-06-27T22:56:47.325Z,102493.20
2019-06-27T22:59:14.363Z,102486.91
2019-06-27T23:01:41.349Z,102488.67
2019-06-27T23:04:08.363Z,102490.39
2019-06-27T23:06:36.927Z,102491.25
2019-06-27T23:09:04.816Z,102489.84
2019-06-27T23:11:31.835Z,102488.00
2019-06-27T23:13:59.001Z,102488.31
2019-06-27T23:16:26.431Z,102484.20
2019-06-27T23:18:53.450Z,102475.20
2019-06-27T23:21:20.540Z,102482.23
2019-06-27T23:23:47.549Z,102485.28
2019-06-27T23:26:14.540Z,102480.78
2019-06-27T23:28:41.562Z,102478.94
2019-06-27T23:31:08.578Z,102479.24
2019-06-27T23:33:35.697Z,102481.77
2019-06-27T23:36:03.860Z,102478.09
2019-06-27T23:38:30.845Z,102479.24
2019-06-27T23:40:58.025Z,102480.48
2019-06-27T23:43:25.041Z,102487.84
2019-06-27T23:45:51.993Z,102484.25
2019-06-27T23:48:20.195Z,102481.03
2019-06-27T23:50:47.351Z,102482.36
2019-06-27T23:53:14.370Z,102478.30
2019-06-27T23:55:41.364Z,102477.34
2019-06-27T23:58:08.505Z,102484.84
